Time;durP1;ratioP1;P1;durP2;ratioP2;P2;SDS_P1;SDS_P2;PMS_P1;PMS_P2;Temp;Humidity;BMP_temperature;BMP_pressure;BME280_temperature;BME280_humidity;BME280_pressure;Samples;Min_cycle;Max_cycle;Signal;HPM_P1;HPM_P2
2022/01/15 00:00:24;;;;;;;;;;;-2.20;99.90;;;;;;5034367;28;19996;-68
2022/01/15 00:02:50;;;;;;;;;;;-2.10;99.90;;;;;;5034067;28;20450;-74
2022/01/15 00:05:15;;;;;;;;;;;-2.10;99.90;;;;;;5034060;28;19917;-67
2022/01/15 00:07:44;;;;;;;;;;;-2.10;99.90;;;;;;5034104;28;19940;-67
2022/01/15 00:10:10;;;;;;;;;;;-2.00;99.90;;;;;;5034078;28;19913;-67
2022/01/15 00:12:40;;;;;;;;;;;-2.30;99.90;;;;;;5033998;28;19917;-67
2022/01/15 00:15:14;;;;;;;;;;;-2.10;99.90;;;;;;5032424;28;19921;-67
2022/01/15 00:20:12;;;;;;;;;;;-2.00;99.90;;;;;;5034124;28;19956;-67
2022/01/15 00:22:37;;;;;;;;;;;-2.00;99.90;;;;;;5033990;28;20003;-67
2022/01/15 00:25:03;;;;;;;;;;;-2.10;99.90;;;;;;5033936;28;19988;-68
2022/01/15 00:27:28;;;;;;;;;;;-2.30;99.90;;;;;;5033896;28;19924;-67
2022/01/15 00:29:54;;;;;;;;;;;-2.40;99.90;;;;;;5027780;28;20004;-67
2022/01/15 00:32:20;;;;;;;;;;;-2.50;99.90;;;;;;5013390;28;19921;-67
2022/01/15 00:34:45;;;;;;;;;;;-2.40;99.90;;;;;;5013697;28;19922;-67
2022/01/15 00:37:11;;;;;;;;;;;-2.30;99.90;;;;;;5012342;28;20004;-67
2022/01/15 00:39:36;;;;;;;;;;;-2.20;99.90;;;;;;5013332;28;19920;-67
2022/01/15 00:42:02;;;;;;;;;;;-2.20;99.90;;;;;;5013957;28;19917;-67
2022/01/15 00:44:28;;;;;;;;;;;-2.10;99.90;;;;;;5013624;28;19920;-67
2022/01/15 00:46:53;;;;;;;;;;;-2.00;99.90;;;;;;5012401;28;19914;-67
2022/01/15 00:49:19;;;;;;;;;;;-2.00;99.90;;;;;;5013730;28;19917;-71
2022/01/15 00:51:45;;;;;;;;;;;-2.00;99.90;;;;;;5013812;28;19918;-67
2022/01/15 00:54:10;;;;;;;;;;;-2.10;99.90;;;;;;5013529;28;20024;-69
2022/01/15 00:56:36;;;;;;;;;;;-2.10;99.90;;;;;;5013531;28;19925;-67
2022/01/15 00:59:02;;;;;;;;;;;-2.20;99.90;;;;;;5013519;28;19967;-67
2022/01/15 01:01:27;;;;;;;;;;;-2.30;99.90;;;;;;5013622;28;20349;-67
2022/01/15 01:03:53;;;;;;;;;;;-2.30;99.90;;;;;;5013679;28;19913;-67
2022/01/15 01:06:18;;;;;;;;;;;-2.30;99.90;;;;;;5013718;28;19925;-67
2022/01/15 01:08:44;;;;;;;;;;;-2.30;99.90;;;;;;5013760;28;20299;-67
2022/01/15 01:11:22;;;;;;;;;;;-2.20;99.90;;;;;;5013619;28;20000;-67
2022/01/15 01:24:28;;;;;;;;;;;-2.00;99.90;;;;;;5013363;28;20279;-67
2022/01/15 01:27:01;;;;;;;;;;;-2.10;99.90;;;;;;5013340;28;19914;-67
2022/01/15 01:32:44;;;;;;;;;;;-1.90;99.90;;;;;;5024899;28;20353;-67
2022/01/15 01:34:45;;;;;;;;;;;-1.80;99.90;;;;;;5024827;28;19921;-67
2022/01/15 01:37:18;;;;;;;;;;;-1.80;99.90;;;;;;5033204;28;19917;-67
2022/01/15 01:39:48;;;;;;;;;;;-1.70;99.90;;;;;;5031673;28;20344;-67
2022/01/15 01:45:17;;;;;;;;;;;-1.50;99.90;;;;;;5033139;28;19956;-67
2022/01/15 01:47:43;;;;;;;;;;;-1.40;99.90;;;;;;5018903;28;19913;-70
2022/01/15 01:50:16;;;;;;;;;;;-1.30;99.90;;;;;;5032256;28;20442;-67
2022/01/15 01:52:45;;;;;;;;;;;-1.30;99.90;;;;;;5034509;28;19913;-67
2022/01/15 01:55:11;;;;;;;;;;;-1.40;99.90;;;;;;5035730;28;19932;-66
2022/01/15 01:57:38;;;;;;;;;;;-1.50;99.90;;;;;;5036811;28;19917;-67
2022/01/15 02:00:08;;;;;;;;;;;-1.40;99.90;;;;;;5036672;28;19917;-67
2022/01/15 02:02:33;;;;;;;;;;;-1.40;99.90;;;;;;5036407;28;19940;-67
2022/01/15 02:04:59;;;;;;;;;;;-1.20;99.90;;;;;;5036292;28;20356;-66
2022/01/15 02:07:26;;;;;;;;;;;-1.10;99.90;;;;;;5036207;28;19919;-67
2022/01/15 02:09:52;;;;;;;;;;;-1.10;99.90;;;;;;5036278;28;20446;-71
2022/01/15 02:12:18;;;;;;;;;;;-1.10;99.90;;;;;;5036306;28;20387;-67
2022/01/15 02:14:43;;;;;;;;;;;-1.30;99.90;;;;;;5036497;28;19925;-67
2022/01/15 02:17:12;;;;;;;;;;;-1.30;99.90;;;;;;5036145;28;20024;-67
2022/01/15 02:19:46;;;;;;;;;;;-1.50;99.90;;;;;;5034709;28;19913;-67
2022/01/15 02:24:55;;;;;;;;;;;-1.60;99.90;;;;;;5036034;28;19919;-67
2022/01/15 02:27:21;;;;;;;;;;;-1.60;99.90;;;;;;5035959;28;20000;-68
2022/01/15 02:29:46;;;;;;;;;;;-1.50;99.90;;;;;;5035885;28;20364;-67
2022/01/15 02:32:12;;;;;;;;;;;-1.50;99.90;;;;;;5035813;28;19913;-70
2022/01/15 02:34:37;;;;;;;;;;;-1.50;99.90;;;;;;5035884;28;19967;-67
2022/01/15 02:37:03;;;;;;;;;;;-1.40;99.90;;;;;;5035777;28;19913;-67
2022/01/15 02:39:29;;;;;;;;;;;-1.40;99.90;;;;;;5035842;28;19920;-67
2022/01/15 02:41:54;;;;;;;;;;;-1.30;99.90;;;;;;5035914;28;19917;-67
2022/01/15 02:44:20;;;;;;;;;;;-1.30;99.90;;;;;;5035598;28;20367;-67
2022/01/15 02:49:15;;;;;;;;;;;-1.60;99.90;;;;;;5035621;28;19921;-67
2022/01/15 02:51:41;;;;;;;;;;;-1.60;99.90;;;;;;5035553;28;20687;-67
2022/01/15 02:54:07;;;;;;;;;;;-1.50;99.90;;;;;;5035409;28;19917;-67
2022/01/15 02:56:34;;;;;;;;;;;-1.30;99.90;;;;;;5035407;28;19913;-67
2022/01/15 02:59:01;;;;;;;;;;;-1.20;99.90;;;;;;5035436;28;20365;-67
2022/01/15 03:01:26;;;;;;;;;;;-1.00;99.90;;;;;;5034628;28;19975;-66
2022/01/15 03:03:52;;;;;;;;;;;-0.90;99.90;;;;;;5035276;28;20490;-67
2022/01/15 03:06:18;;;;;;;;;;;-0.90;99.90;;;;;;5035351;28;19958;-67
2022/01/15 03:08:45;;;;;;;;;;;-0.90;99.90;;;;;;5035315;28;19967;-67
2022/01/15 03:11:11;;;;;;;;;;;-0.90;99.90;;;;;;5035273;28;19921;-67
2022/01/15 03:13:37;;;;;;;;;;;-0.80;99.90;;;;;;5035196;28;20004;-67
2022/01/15 03:16:04;;;;;;;;;;;-0.90;99.90;;;;;;5035056;28;19913;-72
2022/01/15 03:18:30;;;;;;;;;;;-0.90;99.90;;;;;;5034789;28;19924;-67
2022/01/15 03:20:56;;;;;;;;;;;-0.80;99.90;;;;;;5033487;28;19913;-67
2022/01/15 03:23:21;;;;;;;;;;;-0.90;99.90;;;;;;5034781;28;19909;-67
2022/01/15 03:25:47;;;;;;;;;;;-0.90;99.90;;;;;;5035085;28;19920;-67
2022/01/15 03:28:13;;;;;;;;;;;-1.10;99.90;;;;;;5035013;28;19914;-67
2022/01/15 03:30:38;;;;;;;;;;;-1.10;99.90;;;;;;5034783;28;19964;-67
2022/01/15 03:33:04;;;;;;;;;;;-0.90;99.90;;;;;;5034641;28;19913;-67
2022/01/15 03:35:30;;;;;;;;;;;-0.80;99.90;;;;;;5033447;28;19940;-67
2022/01/15 03:37:56;;;;;;;;;;;-0.90;99.90;;;;;;5033433;28;20399;-67
2022/01/15 03:40:21;;;;;;;;;;;-1.00;99.90;;;;;;5034079;28;19924;-67
2022/01/15 03:42:47;;;;;;;;;;;-1.00;99.90;;;;;;5034500;28;19913;-70
2022/01/15 03:45:13;;;;;;;;;;;-1.30;99.90;;;;;;5034597;28;19920;-67
2022/01/15 03:47:40;;;;;;;;;;;-1.60;99.90;;;;;;5034565;28;19932;-67
2022/01/15 03:50:06;;;;;;;;;;;-1.70;99.90;;;;;;5034482;28;19913;-67
2022/01/15 03:52:32;;;;;;;;;;;-1.70;99.90;;;;;;5034376;28;19953;-67
2022/01/15 03:54:57;;;;;;;;;;;-1.70;99.90;;;;;;5034366;28;20396;-67
2022/01/15 03:57:23;;;;;;;;;;;-1.70;99.90;;;;;;5034370;28;19913;-67
2022/01/15 03:59:49;;;;;;;;;;;-1.80;99.90;;;;;;5032775;28;19917;-67
2022/01/15 04:02:14;;;;;;;;;;;-1.80;99.90;;;;;;5033931;28;20390;-67
2022/01/15 04:04:40;;;;;;;;;;;-1.70;99.90;;;;;;5034140;28;19916;-67
2022/01/15 04:07:06;;;;;;;;;;;-1.70;99.90;;;;;;5032998;28;19917;-67
2022/01/15 04:09:32;;;;;;;;;;;-1.60;99.90;;;;;;5034119;28;19963;-73
2022/01/15 04:11:57;;;;;;;;;;;-1.60;99.90;;;;;;5034316;28;19924;-68
2022/01/15 04:14:23;;;;;;;;;;;-1.50;99.90;;;;;;5033867;28;19921;-67
2022/01/15 04:16:48;;;;;;;;;;;-1.50;99.90;;;;;;5032325;28;20415;-67
2022/01/15 04:19:14;;;;;;;;;;;-1.60;99.90;;;;;;5032683;28;19913;-67
2022/01/15 04:21:40;;;;;;;;;;;-1.70;99.90;;;;;;5033950;28;19917;-67
2022/01/15 04:24:06;;;;;;;;;;;-1.90;99.90;;;;;;5033802;28;19914;-66
2022/01/15 04:26:31;;;;;;;;;;;-2.10;99.90;;;;;;5033598;28;19967;-67
2022/01/15 04:29:05;;;;;;;;;;;-2.10;99.90;;;;;;5033372;28;19920;-73
2022/01/15 04:31:46;;;;;;;;;;;-1.90;99.90;;;;;;5033316;28;19955;-67
2022/01/15 04:34:12;;;;;;;;;;;-1.80;99.90;;;;;;5033528;28;19978;-67
2022/01/15 04:36:38;;;;;;;;;;;-1.70;99.90;;;;;;5033802;28;19968;-67
2022/01/15 04:39:04;;;;;;;;;;;-1.80;99.90;;;;;;5033726;28;19917;-67
2022/01/15 04:41:29;;;;;;;;;;;-1.90;99.90;;;;;;5032518;28;19920;-67
2022/01/15 04:43:55;;;;;;;;;;;-2.00;99.90;;;;;;5033424;28;19913;-67
2022/01/15 04:46:21;;;;;;;;;;;-2.20;99.90;;;;;;5033371;28;20323;-67
2022/01/15 04:48:46;;;;;;;;;;;-2.30;99.90;;;;;;5033342;28;19914;-67
2022/01/15 04:51:12;;;;;;;;;;;-2.30;99.90;;;;;;5033331;28;19920;-69
2022/01/15 04:53:38;;;;;;;;;;;-2.40;99.90;;;;;;5033380;28;19925;-67
2022/01/15 04:56:03;;;;;;;;;;;-2.60;99.90;;;;;;5033536;28;20003;-66
2022/01/15 04:58:29;;;;;;;;;;;-2.60;99.90;;;;;;5033438;28;19921;-66
2022/01/15 05:00:55;;;;;;;;;;;-2.70;99.90;;;;;;5033469;28;19913;-67
2022/01/15 05:03:20;;;;;;;;;;;-2.90;99.90;;;;;;5033417;28;19913;-66
2022/01/15 05:05:46;;;;;;;;;;;-2.90;99.90;;;;;;5031785;28;19917;-66
2022/01/15 05:08:12;;;;;;;;;;;-2.90;99.90;;;;;;5033179;28;19917;-67
2022/01/15 05:10:45;;;;;;;;;;;-2.90;99.90;;;;;;5033366;28;19924;-67
2022/01/15 05:13:11;;;;;;;;;;;-3.00;99.90;;;;;;5033304;28;19917;-70
2022/01/15 05:15:36;;;;;;;;;;;-3.00;99.90;;;;;;5033093;28;20342;-68
2022/01/15 05:18:02;;;;;;;;;;;-3.10;99.90;;;;;;5033153;28;19928;-67
2022/01/15 05:20:27;;;;;;;;;;;-3.20;99.90;;;;;;5033248;28;19917;-66
2022/01/15 05:22:53;;;;;;;;;;;-3.30;99.90;;;;;;5031991;28;20361;-66
2022/01/15 05:25:19;;;;;;;;;;;-3.40;99.90;;;;;;5035383;28;19913;-67
2022/01/15 05:27:45;;;;;;;;;;;-3.40;99.90;;;;;;5036766;28;19917;-73
2022/01/15 05:30:12;;;;;;;;;;;-3.40;99.90;;;;;;5037173;28;20284;-67
2022/01/15 05:32:37;;;;;;;;;;;-3.40;99.90;;;;;;5037009;28;19927;-66
2022/01/15 05:35:04;;;;;;;;;;;-3.30;99.90;;;;;;5036942;28;19921;-66
2022/01/15 05:37:29;;;;;;;;;;;-3.20;99.90;;;;;;5035698;28;19913;-66
2022/01/15 05:39:55;;;;;;;;;;;-3.30;99.90;;;;;;5036548;28;20008;-66
2022/01/15 05:42:21;;;;;;;;;;;-3.60;99.90;;;;;;5035301;28;19956;-66
2022/01/15 05:44:46;;;;;;;;;;;-3.80;99.90;;;;;;5036926;28;19920;-66
2022/01/15 05:47:12;;;;;;;;;;;-4.00;99.90;;;;;;5035603;28;19916;-66
2022/01/15 05:49:38;;;;;;;;;;;-4.10;99.90;;;;;;5035494;28;20008;-66
2022/01/15 05:52:04;;;;;;;;;;;-4.10;99.90;;;;;;5034413;28;19913;-67
2022/01/15 05:54:29;;;;;;;;;;;-4.10;99.90;;;;;;5034019;28;20295;-72
2022/01/15 05:56:55;;;;;;;;;;;-3.90;99.90;;;;;;5033813;28;20000;-67
2022/01/15 05:59:20;;;;;;;;;;;-3.60;99.90;;;;;;5036616;28;19923;-66
2022/01/15 06:01:46;;;;;;;;;;;-3.40;99.90;;;;;;5034777;28;19923;-66
2022/01/15 06:04:12;;;;;;;;;;;-3.20;99.90;;;;;;5036545;28;20368;-66
2022/01/15 06:06:37;;;;;;;;;;;-3.10;99.90;;;;;;5036428;28;19964;-66
2022/01/15 06:09:03;;;;;;;;;;;-3.00;99.90;;;;;;5036454;28;19913;-67
2022/01/15 06:11:29;;;;;;;;;;;-2.90;99.90;;;;;;5036392;28;19913;-66
2022/01/15 06:13:55;;;;;;;;;;;-2.70;99.90;;;;;;5036302;28;19917;-66
2022/01/15 06:16:20;;;;;;;;;;;-2.70;99.90;;;;;;5036324;28;20037;-66
2022/01/15 06:18:46;;;;;;;;;;;-2.70;99.90;;;;;;5036329;28;20004;-66
2022/01/15 06:21:12;;;;;;;;;;;-2.80;99.90;;;;;;5034808;28;19924;-66
2022/01/15 06:23:37;;;;;;;;;;;-2.80;99.90;;;;;;5036077;28;19917;-72
2022/01/15 06:26:03;;;;;;;;;;;-2.90;99.90;;;;;;5035236;28;19927;-66
2022/01/15 06:28:28;;;;;;;;;;;-2.90;99.90;;;;;;5034471;28;19913;-66
2022/01/15 06:30:54;;;;;;;;;;;-3.00;99.90;;;;;;5035850;28;20381;-66
2022/01/15 06:33:20;;;;;;;;;;;-3.20;99.90;;;;;;5034436;28;19913;-66
2022/01/15 06:35:45;;;;;;;;;;;-3.20;99.90;;;;;;5034872;28;19917;-66
2022/01/15 06:38:11;;;;;;;;;;;-3.30;99.90;;;;;;5034368;28;19917;-71
2022/01/15 06:40:36;;;;;;;;;;;-3.40;99.90;;;;;;5035516;28;19952;-66
2022/01/15 06:43:02;;;;;;;;;;;-3.50;99.90;;;;;;5035462;28;20439;-65
2022/01/15 06:45:29;;;;;;;;;;;-3.60;99.90;;;;;;5035576;28;19988;-66
2022/01/15 06:47:55;;;;;;;;;;;-3.30;99.90;;;;;;5035575;28;19921;-66
2022/01/15 06:50:22;;;;;;;;;;;-3.30;99.90;;;;;;5035634;28;19913;-66
2022/01/15 06:52:48;;;;;;;;;;;-3.30;99.90;;;;;;5035602;28;20335;-66
2022/01/15 06:55:14;;;;;;;;;;;-3.30;99.90;;;;;;5033795;28;19921;-66
2022/01/15 06:57:40;;;;;;;;;;;-3.40;99.90;;;;;;5035188;28;20691;-72
2022/01/15 07:00:07;;;;;;;;;;;-3.30;99.90;;;;;;5035611;28;19959;-66
2022/01/15 07:02:33;;;;;;;;;;;-3.10;99.90;;;;;;5035452;28;19913;-66
2022/01/15 07:04:58;;;;;;;;;;;-2.90;99.90;;;;;;5035254;28;19917;-66
2022/01/15 07:07:24;;;;;;;;;;;-2.80;99.90;;;;;;5035222;28;20258;-72
2022/01/15 07:09:50;;;;;;;;;;;-2.70;99.90;;;;;;5035137;28;19952;-66
2022/01/15 07:12:15;;;;;;;;;;;-2.70;99.90;;;;;;5033910;28;19913;-67
2022/01/15 07:14:41;;;;;;;;;;;-3.00;99.90;;;;;;5035214;28;20010;-66
2022/01/15 07:17:06;;;;;;;;;;;-3.30;99.90;;;;;;5035204;28;19996;-66
2022/01/15 07:19:32;;;;;;;;;;;-3.20;99.90;;;;;;5035144;28;19913;-67
2022/01/15 07:21:58;;;;;;;;;;;-3.20;99.90;;;;;;5035013;28;19917;-66
2022/01/15 07:24:24;;;;;;;;;;;-3.20;99.90;;;;;;5034919;28;20410;-66
2022/01/15 07:26:50;;;;;;;;;;;-2.80;99.90;;;;;;5034892;28;19913;-66
2022/01/15 07:29:16;;;;;;;;;;;-2.60;99.90;;;;;;5034654;28;19917;-74
2022/01/15 07:31:44;;;;;;;;;;;-2.60;99.90;;;;;;5034775;28;19920;-67
2022/01/15 07:34:10;;;;;;;;;;;-2.70;99.90;;;;;;5034801;28;19925;-67
2022/01/15 07:36:35;;;;;;;;;;;-2.70;99.90;;;;;;5034948;28;20360;-66
2022/01/15 07:39:01;;;;;;;;;;;-2.50;99.90;;;;;;5033395;28;20347;-68
2022/01/15 07:41:27;;;;;;;;;;;-2.60;99.90;;;;;;5034493;28;19917;-66
2022/01/15 07:43:52;;;;;;;;;;;-2.90;99.90;;;;;;5034495;28;19920;-66
2022/01/15 07:46:18;;;;;;;;;;;-2.90;99.90;;;;;;5033157;28;19970;-70
2022/01/15 07:48:43;;;;;;;;;;;-2.60;99.90;;;;;;5034215;28;20352;-70
2022/01/15 07:51:09;;;;;;;;;;;-2.30;99.90;;;;;;5034417;28;19913;-66
2022/01/15 07:53:35;;;;;;;;;;;-2.10;99.90;;;;;;5033614;28;19924;-68
2022/01/15 07:56:00;;;;;;;;;;;-2.00;99.90;;;;;;5032928;28;19921;-66
2022/01/15 07:58:26;;;;;;;;;;;-2.00;99.90;;;;;;5034274;28;19921;-66
2022/01/15 08:00:52;;;;;;;;;;;-1.90;99.90;;;;;;5034183;28;20008;-66
2022/01/15 08:03:17;;;;;;;;;;;-1.90;99.90;;;;;;5033729;28;19917;-67
2022/01/15 08:05:43;;;;;;;;;;;-1.80;99.90;;;;;;5032927;28;19917;-66
2022/01/15 08:08:09;;;;;;;;;;;-1.70;99.90;;;;;;5034200;28;19923;-68
2022/01/15 08:10:34;;;;;;;;;;;-1.60;99.90;;;;;;5034279;28;19913;-73
2022/01/15 08:13:01;;;;;;;;;;;-1.40;99.90;;;;;;5034048;28;19913;-67
2022/01/15 08:15:31;;;;;;;;;;;-1.50;99.90;;;;;;5031240;28;19925;-67
2022/01/15 08:17:57;;;;;;;;;;;-1.70;99.90;;;;;;5031663;28;19917;-68
2022/01/15 08:20:23;;;;;;;;;;;-1.90;99.90;;;;;;5030621;28;20422;-66
2022/01/15 08:22:51;;;;;;;;;;;-2.00;99.90;;;;;;5031591;28;19913;-67
2022/01/15 08:25:16;;;;;;;;;;;-2.10;99.90;;;;;;5032072;28;20316;-67
2022/01/15 08:27:42;;;;;;;;;;;-2.00;99.90;;;;;;5030470;28;19917;-67
2022/01/15 08:30:08;;;;;;;;;;;-1.70;99.90;;;;;;5029189;28;19913;-69
2022/01/15 08:32:34;;;;;;;;;;;-1.30;99.90;;;;;;5030246;28;20051;-68
2022/01/15 08:34:59;;;;;;;;;;;-1.20;99.90;;;;;;5029841;28;20027;-68
2022/01/15 08:37:25;;;;;;;;;;;-1.00;99.90;;;;;;5029995;28;19913;-69
2022/01/15 08:39:52;;;;;;;;;;;-0.80;99.90;;;;;;5031739;28;19913;-70
2022/01/15 08:42:18;;;;;;;;;;;-0.60;99.90;;;;;;5032324;28;19920;-70
2022/01/15 08:44:44;;;;;;;;;;;-0.60;99.90;;;;;;5031691;28;19913;-70
2022/01/15 08:47:11;;;;;;;;;;;-1.00;99.90;;;;;;5030620;28;19917;-70
2022/01/15 08:49:37;;;;;;;;;;;-1.00;99.90;;;;;;5030467;28;19913;-70
2022/01/15 08:52:03;;;;;;;;;;;-1.00;99.90;;;;;;5031613;28;19917;-70
2022/01/15 08:54:29;;;;;;;;;;;-0.90;99.90;;;;;;5031785;28;19951;-71
2022/01/15 08:56:55;;;;;;;;;;;-0.90;99.90;;;;;;5030589;28;19914;-72
2022/01/15 08:59:21;;;;;;;;;;;-0.70;99.90;;;;;;5029599;28;19913;-72
2022/01/15 09:01:48;;;;;;;;;;;-0.40;99.90;;;;;;5031408;28;19913;-73
2022/01/15 09:04:14;;;;;;;;;;;0.40;99.90;;;;;;5032935;28;20345;-76
2022/01/15 09:06:43;;;;;;;;;;;0.80;99.90;;;;;;5031273;28;19924;-76
2022/01/15 09:09:08;;;;;;;;;;;1.20;99.90;;;;;;5030509;28;20136;-75
2022/01/15 09:11:34;;;;;;;;;;;1.40;99.90;;;;;;5031610;28;19913;-75
2022/01/15 09:14:00;;;;;;;;;;;1.60;99.90;;;;;;5031690;28;20380;-77
2022/01/15 09:16:25;;;;;;;;;;;1.80;99.90;;;;;;5028582;28;20392;-77
2022/01/15 09:18:51;;;;;;;;;;;1.90;99.90;;;;;;5030798;28;19920;-77
2022/01/15 09:21:17;;;;;;;;;;;2.10;99.90;;;;;;5030111;28;19925;-75
2022/01/15 09:23:42;;;;;;;;;;;2.20;99.90;;;;;;5029835;28;19914;-75
2022/01/15 09:26:19;;;;;;;;;;;2.30;99.90;;;;;;5030456;28;19922;-76
2022/01/15 09:31:29;;;;;;;;;;;2.50;99.90;;;;;;5030201;28;20430;-80
2022/01/15 09:33:54;;;;;;;;;;;2.70;99.90;;;;;;5028178;28;19959;-82
2022/01/15 09:36:20;;;;;;;;;;;2.80;99.90;;;;;;5030576;28;19966;-81
2022/01/15 09:38:46;;;;;;;;;;;2.80;99.90;;;;;;5029816;28;20038;-81
2022/01/15 09:41:13;;;;;;;;;;;2.80;99.90;;;;;;5029583;28;19920;-77
2022/01/15 09:43:39;;;;;;;;;;;2.90;99.90;;;;;;5029277;28;19913;-83
2022/01/15 09:46:06;;;;;;;;;;;3.00;99.90;;;;;;5028680;28;19963;-83
2022/01/15 09:48:32;;;;;;;;;;;3.20;99.90;;;;;;5029348;28;19913;-74
2022/01/15 09:50:58;;;;;;;;;;;3.40;99.90;;;;;;5030237;28;20365;-78
2022/01/15 09:53:24;;;;;;;;;;;3.50;99.90;;;;;;5031337;28;19920;-75
2022/01/15 09:55:52;;;;;;;;;;;3.50;99.90;;;;;;5029943;28;20610;-75
2022/01/15 09:58:18;;;;;;;;;;;3.50;99.90;;;;;;5027519;28;20383;-77
2022/01/15 10:00:44;;;;;;;;;;;3.50;99.90;;;;;;5029530;28;19913;-78
2022/01/15 10:03:10;;;;;;;;;;;3.50;99.90;;;;;;5029212;28;20004;-77
2022/01/15 10:05:36;;;;;;;;;;;3.60;99.90;;;;;;5028924;28;20028;-78
2022/01/15 10:08:05;;;;;;;;;;;3.70;99.90;;;;;;5029985;28;20321;-76
2022/01/15 10:10:32;;;;;;;;;;;3.90;99.90;;;;;;5029922;28;19943;-77
2022/01/15 10:13:16;;;;;;;;;;;4.00;99.90;;;;;;5032725;28;19913;-79
2022/01/15 10:15:43;;;;;;;;;;;4.10;99.90;;;;;;5030446;28;19928;-79
2022/01/15 10:18:19;;;;;;;;;;;3.90;99.90;;;;;;5034703;28;20384;-79
2022/01/15 10:20:45;;;;;;;;;;;4.10;99.90;;;;;;5034825;28;19913;-77
2022/01/15 10:23:16;;;;;;;;;;;4.10;99.90;;;;;;5034107;28;19921;-77
2022/01/15 10:25:41;;;;;;;;;;;4.70;99.90;;;;;;5033439;28;19913;-77
2022/01/15 10:28:08;;;;;;;;;;;4.10;99.90;;;;;;5033530;28;20012;-75
2022/01/15 10:30:34;;;;;;;;;;;3.60;99.90;;;;;;5032346;28;19913;-77
2022/01/15 10:33:01;;;;;;;;;;;3.70;99.90;;;;;;5034197;28;19913;-76
2022/01/15 10:35:30;;;;;;;;;;;3.70;99.90;;;;;;5032191;28;19971;-77
2022/01/15 10:37:57;;;;;;;;;;;3.80;99.90;;;;;;5032606;28;19913;-76
2022/01/15 10:40:27;;;;;;;;;;;4.00;99.90;;;;;;5032974;28;19920;-75
2022/01/15 10:42:55;;;;;;;;;;;3.70;99.90;;;;;;5043446;28;19960;-75
2022/01/15 10:45:21;;;;;;;;;;;3.80;99.90;;;;;;5033874;28;19967;-76
2022/01/15 10:47:49;;;;;;;;;;;3.80;99.90;;;;;;5035515;28;19913;-74
2022/01/15 10:50:22;;;;;;;;;;;4.00;99.90;;;;;;5032861;28;19920;-74
2022/01/15 10:52:48;;;;;;;;;;;4.10;99.90;;;;;;5031967;28;19967;-74
2022/01/15 10:55:17;;;;;;;;;;;4.10;99.90;;;;;;5033214;28;19921;-74
2022/01/15 10:57:43;;;;;;;;;;;4.10;99.90;;;;;;5032531;28;19917;-74
2022/01/15 11:00:09;;;;;;;;;;;4.10;99.90;;;;;;5031715;28;19959;-74
2022/01/15 11:02:35;;;;;;;;;;;4.30;99.90;;;;;;5030598;28;19920;-72
2022/01/15 11:05:02;;;;;;;;;;;4.30;99.90;;;;;;5032784;28;20030;-74
2022/01/15 11:07:28;;;;;;;;;;;4.20;99.90;;;;;;5014031;28;19913;-74
2022/01/15 11:09:53;;;;;;;;;;;4.30;99.90;;;;;;5013118;28;19920;-75
2022/01/15 11:12:24;;;;;;;;;;;4.20;99.90;;;;;;5014055;28;19914;-75
2022/01/15 11:14:49;;;;;;;;;;;4.30;99.90;;;;;;5031673;28;19994;-75
2022/01/15 11:17:15;;;;;;;;;;;4.40;99.90;;;;;;5032466;28;19945;-75
2022/01/15 11:19:43;;;;;;;;;;;4.60;99.90;;;;;;5031366;28;19919;-76
2022/01/15 11:22:09;;;;;;;;;;;4.70;99.90;;;;;;5031513;28;20296;-76
2022/01/15 11:24:35;;;;;;;;;;;4.60;99.90;;;;;;5031705;28;19913;-77
2022/01/15 11:27:01;;;;;;;;;;;4.50;99.90;;;;;;5031313;28;19920;-77
2022/01/15 11:29:27;;;;;;;;;;;4.80;99.90;;;;;;5033281;28;19913;-78
2022/01/15 11:31:57;;;;;;;;;;;5.00;99.90;;;;;;5033470;28;20004;-76
2022/01/15 11:34:23;;;;;;;;;;;5.00;99.90;;;;;;5032200;28;19925;-75
2022/01/15 11:36:49;;;;;;;;;;;4.70;99.90;;;;;;5034628;28;19917;-74
2022/01/15 11:39:30;;;;;;;;;;;4.60;99.90;;;;;;5031926;28;20459;-75
2022/01/15 11:41:56;;;;;;;;;;;4.70;99.90;;;;;;5032144;28;19913;-74
2022/01/15 11:44:28;;;;;;;;;;;4.40;99.90;;;;;;5031312;28;19917;-77
2022/01/15 11:46:57;;;;;;;;;;;4.50;99.90;;;;;;5031874;28;20410;-77
2022/01/15 11:49:41;;;;;;;;;;;4.60;99.90;;;;;;5031841;28;19920;-73
2022/01/15 11:52:09;;;;;;;;;;;4.60;99.90;;;;;;5030855;28;19919;-78
2022/01/15 11:54:38;;;;;;;;;;;4.90;99.90;;;;;;5030735;28;19921;-75
2022/01/15 11:57:18;;;;;;;;;;;4.80;99.90;;;;;;5029297;28;19936;-75
2022/01/15 11:59:45;;;;;;;;;;;5.00;99.90;;;;;;5031379;28;19971;-75
2022/01/15 12:02:24;;;;;;;;;;;5.10;99.90;;;;;;5030853;28;19920;-75
2022/01/15 12:04:49;;;;;;;;;;;5.70;99.90;;;;;;5031601;28;19913;-75
2022/01/15 12:07:15;;;;;;;;;;;5.50;99.90;;;;;;5030945;28;20009;-75
2022/01/15 12:09:45;;;;;;;;;;;5.50;99.90;;;;;;5032746;28;20423;-75
2022/01/15 12:12:20;;;;;;;;;;;5.60;99.90;;;;;;5033589;28;20341;-73
2022/01/15 12:14:55;;;;;;;;;;;5.60;99.90;;;;;;5031084;28;19921;-76
2022/01/15 12:17:31;;;;;;;;;;;5.60;99.90;;;;;;5029015;28;19936;-75
2022/01/15 12:19:58;;;;;;;;;;;5.40;99.90;;;;;;5030323;28;20249;-75
2022/01/15 12:22:37;;;;;;;;;;;5.30;99.90;;;;;;5031734;28;19913;-75
2022/01/15 12:25:04;;;;;;;;;;;5.40;99.90;;;;;;5032401;28;19913;-75
2022/01/15 12:27:31;;;;;;;;;;;5.40;99.90;;;;;;5029533;28;20327;-73
2022/01/15 12:30:15;;;;;;;;;;;5.50;99.90;;;;;;5028971;28;20431;-72
2022/01/15 12:32:42;;;;;;;;;;;5.50;99.90;;;;;;5030734;28;20003;-74
2022/01/15 12:35:30;;;;;;;;;;;5.40;99.90;;;;;;5032289;28;20628;-74
2022/01/15 12:37:55;;;;;;;;;;;5.30;99.90;;;;;;5031368;28;19971;-75
2022/01/15 12:40:22;;;;;;;;;;;5.40;99.90;;;;;;5032835;28;20376;-76
2022/01/15 12:42:57;;;;;;;;;;;4.80;99.90;;;;;;5031790;28;19921;-75
2022/01/15 12:45:24;;;;;;;;;;;4.90;99.90;;;;;;5030732;28;19914;-73
2022/01/15 12:47:49;;;;;;;;;;;4.60;99.90;;;;;;5031072;28;19987;-72
2022/01/15 12:50:15;;;;;;;;;;;5.00;99.90;;;;;;5031633;28;20437;-74
2022/01/15 12:52:40;;;;;;;;;;;5.00;99.90;;;;;;5029872;28;19917;-73
2022/01/15 12:55:07;;;;;;;;;;;5.40;99.90;;;;;;5031407;28;20381;-72
2022/01/15 12:57:37;;;;;;;;;;;5.90;99.90;;;;;;5029708;28;19920;-73
2022/01/15 13:00:07;;;;;;;;;;;6.20;99.90;;;;;;5030161;28;20373;-74
2022/01/15 13:02:33;;;;;;;;;;;6.30;99.90;;;;;;5031309;28;19913;-75
2022/01/15 13:04:58;;;;;;;;;;;5.60;99.90;;;;;;5030505;28;19924;-75
2022/01/15 13:07:24;;;;;;;;;;;5.30;99.90;;;;;;5030501;28;19948;-74
2022/01/15 13:09:50;;;;;;;;;;;5.30;99.90;;;;;;5029619;28;19913;-75
2022/01/15 13:12:16;;;;;;;;;;;5.80;99.90;;;;;;5031017;28;19914;-74
2022/01/15 13:14:43;;;;;;;;;;;5.70;99.90;;;;;;5028671;28;19925;-74
2022/01/15 13:17:26;;;;;;;;;;;5.80;99.90;;;;;;5029153;28;19961;-73
2022/01/15 13:19:57;;;;;;;;;;;6.50;99.90;;;;;;5028732;28;19925;-74
2022/01/15 13:22:23;;;;;;;;;;;6.60;99.90;;;;;;5030035;28;20288;-73
2022/01/15 13:25:05;;;;;;;;;;;6.30;99.90;;;;;;5030857;28;20395;-72
2022/01/15 13:27:32;;;;;;;;;;;6.20;99.90;;;;;;5031309;28;20558;-72
2022/01/15 13:29:59;;;;;;;;;;;6.20;99.90;;;;;;5030861;28;20490;-73
2022/01/15 13:32:27;;;;;;;;;;;6.20;99.90;;;;;;5031259;28;19919;-72
2022/01/15 13:35:09;;;;;;;;;;;6.10;99.90;;;;;;5032029;28;20339;-73
2022/01/15 13:37:35;;;;;;;;;;;6.20;99.90;;;;;;5030976;28;19917;-76
2022/01/15 13:40:04;;;;;;;;;;;6.20;99.90;;;;;;5031888;28;19913;-73
2022/01/15 13:42:35;;;;;;;;;;;6.20;99.90;;;;;;5031389;28;20003;-73
2022/01/15 13:45:05;;;;;;;;;;;6.30;99.90;;;;;;5032764;28;20026;-72
2022/01/15 13:47:33;;;;;;;;;;;6.30;99.90;;;;;;5034540;28;19913;-73
2022/01/15 13:55:29;;;;;;;;;;;6.40;99.90;;;;;;5034754;28;20098;-76
2022/01/15 13:58:11;;;;;;;;;;;6.20;99.90;;;;;;5032754;28;19921;-72
2022/01/15 14:00:38;;;;;;;;;;;6.10;99.90;;;;;;5021028;28;19920;-73
2022/01/15 14:03:05;;;;;;;;;;;6.00;99.90;;;;;;5031494;28;20372;-72
2022/01/15 14:05:31;;;;;;;;;;;5.80;99.90;;;;;;5031834;28;20494;-75
2022/01/15 14:08:00;;;;;;;;;;;5.60;99.90;;;;;;5045506;28;19913;-74
2022/01/15 14:10:29;;;;;;;;;;;5.70;99.90;;;;;;5033166;28;19917;-79
2022/01/15 14:13:02;;;;;;;;;;;5.30;99.90;;;;;;5031783;28;19971;-75
2022/01/15 14:15:34;;;;;;;;;;;5.20;99.90;;;;;;5046222;28;19925;-75
2022/01/15 14:18:02;;;;;;;;;;;5.20;99.90;;;;;;5032587;28;19983;-75
2022/01/15 14:23:42;;;;;;;;;;;5.00;99.90;;;;;;5028209;28;20000;-70
2022/01/15 14:26:15;;;;;;;;;;;4.90;99.90;;;;;;5032592;28;20090;-72
2022/01/15 14:28:41;;;;;;;;;;;4.70;99.90;;;;;;5031586;28;19917;-73
2022/01/15 14:31:07;;;;;;;;;;;4.70;99.90;;;;;;5027931;28;19913;-73
2022/01/15 14:33:33;;;;;;;;;;;4.70;99.90;;;;;;5032104;28;20475;-71
2022/01/15 14:35:59;;;;;;;;;;;4.70;99.90;;;;;;5032834;28;19936;-79
2022/01/15 14:38:25;;;;;;;;;;;4.60;99.90;;;;;;5031707;28;19913;-77
2022/01/15 14:40:51;;;;;;;;;;;4.40;99.90;;;;;;5029719;28;19970;-82
2022/01/15 14:43:17;;;;;;;;;;;4.50;99.90;;;;;;5029699;28;20016;-74
2022/01/15 14:45:43;;;;;;;;;;;4.50;99.90;;;;;;5029455;28;19940;-73
2022/01/15 14:48:08;;;;;;;;;;;4.30;99.90;;;;;;5031114;28;20361;-76
2022/01/15 14:50:34;;;;;;;;;;;4.30;99.90;;;;;;5031158;28;19924;-75
2022/01/15 14:53:00;;;;;;;;;;;4.40;99.90;;;;;;5032401;28;19913;-77
2022/01/15 14:55:26;;;;;;;;;;;4.30;99.90;;;;;;5031330;28;19921;-79